Bill Elmer — WDC6513 — position and weather

sailwx.info

Track history (hours):
 
Tides and Currents Weather Stations Pressure Air Temp Water Temp Dewpoint Dewpoint Depression Visibility Wind Speed Wind Dir Waves Ship Positions

Bill Elmer

Owner: AMERICAN COMMERCIAL BARGE LINE LLC, Jeffersonville, IN. More information available from US FCC via Universal Licensing System and Coast Guard Vessel Documentation Center.

Last reported at 2014-Sep-27 12:32 UTC. Time now 2014-Oct-01 08:18 UTC.
Position N 30°06' W 090°58'.

; draft 2.9 m.

MMSI: 367057350.

Date/timePositionNaut miles runAvg speedWind from/ knotsBaromVisibWave heightAir tempDewpointWater temp
2014-Sep-27 12:32N 30°06' W 090°58'0 0.1
2014-Sep-27 11:25N 30°06' W 090°58'3 3.3
2014-Sep-27 10:31N 30°06' W 090°55'4 0.7
2014-Sep-27 05:25N 30°04' W 090°52'5 6.1
2014-Sep-27 04:33N 29°60' W 090°47'8 8.2
2014-Sep-27 03:33N 30°03' W 090°38'7 6.7
2014-Sep-27 02:33N 30°03' W 090°31'2 0.9
2014-Sep-27 00:28N 30°02' W 090°29'3 3.1
2014-Sep-26 23:33N 29°60' W 090°27'4 4.0
2014-Sep-26 22:32N 29°57' W 090°23'12 0.4
2014-Sep-25 12:04N 29°57' W 090°09'0 0.0
2014-Sep-25 11:17N 29°57' W 090°09'0 0.0
2014-Sep-25 10:30N 29°57' W 090°09'0 0.0
2014-Sep-25 09:25N 29°57' W 090°09'0 0.0
2014-Sep-25 08:33N 29°57' W 090°09'0 0.0
2014-Sep-25 07:23N 29°57' W 090°09'0 0.0
2014-Sep-25 06:33N 29°57' W 090°09'0 0.0
2014-Sep-25 05:13N 29°57' W 090°09'0 0.0
2014-Sep-25 03:33N 29°57' W 090°09'0 0.0
2014-Sep-25 02:31N 29°57' W 090°09'  
2014-Sep-22 11:17N 29°57' W 090°09'0 0.0
2014-Sep-22 10:19N 29°57' W 090°09'0 0.0
2014-Sep-22 09:12N 29°57' W 090°09'0 0.0
2014-Sep-22 08:31N 29°57' W 090°09'0 0.0
2014-Sep-22 07:31N 29°57' W 090°09'0 0.0
2014-Sep-22 06:33N 29°57' W 090°09'0 0.0
2014-Sep-22 05:27N 29°57' W 090°09'0 0.0
2014-Sep-22 04:17N 29°57' W 090°09'0 0.0
2014-Sep-21 10:32N 29°57' W 090°09'0 0.0
2014-Sep-21 09:19N 29°57' W 090°09'0 0.0
2014-Sep-21 08:19N 29°57' W 090°09'  
2014-Sep-18 08:29N 29°57' W 090°09'0 0.0
2014-Sep-17 12:33N 29°57' W 090°09'  
Track history (hours):
 
Tides and Currents Weather Stations Pressure Air Temp Water Temp Dewpoint Dewpoint Depression Visibility Wind Speed Wind Dir Waves Ship Positions

Bill Elmer

Owner: AMERICAN COMMERCIAL BARGE LINE LLC, Jeffersonville, IN. More information available from US FCC via Universal Licensing System and Coast Guard Vessel Documentation Center.

Last reported at 2014-Sep-27 12:32 UTC. Time now 2014-Oct-01 08:18 UTC.
Position N 30°06' W 090°58'.

; draft 2.9 m.

MMSI: 367057350.

Date/timePositionNaut miles runAvg speedWind from/ knotsBaromVisibWave heightAir tempDewpointWater temp
2014-Sep-27 12:32N 30°06' W 090°58'0 0.1
2014-Sep-27 11:25N 30°06' W 090°58'3 3.3
2014-Sep-27 10:31N 30°06' W 090°55'4 0.7
2014-Sep-27 05:25N 30°04' W 090°52'5 6.1
2014-Sep-27 04:33N 29°60' W 090°47'8 8.2
2014-Sep-27 03:33N 30°03' W 090°38'7 6.7
2014-Sep-27 02:33N 30°03' W 090°31'2 0.9
2014-Sep-27 00:28N 30°02' W 090°29'3 3.1
2014-Sep-26 23:33N 29°60' W 090°27'4 4.0
2014-Sep-26 22:32N 29°57' W 090°23'12 0.4
2014-Sep-25 12:04N 29°57' W 090°09'0 0.0
2014-Sep-25 11:17N 29°57' W 090°09'0 0.0
2014-Sep-25 10:30N 29°57' W 090°09'0 0.0
2014-Sep-25 09:25N 29°57' W 090°09'0 0.0
2014-Sep-25 08:33N 29°57' W 090°09'0 0.0
2014-Sep-25 07:23N 29°57' W 090°09'0 0.0
2014-Sep-25 06:33N 29°57' W 090°09'0 0.0
2014-Sep-25 05:13N 29°57' W 090°09'0 0.0
2014-Sep-25 03:33N 29°57' W 090°09'0 0.0
2014-Sep-25 02:31N 29°57' W 090°09'  
2014-Sep-22 11:17N 29°57' W 090°09'0 0.0
2014-Sep-22 10:19N 29°57' W 090°09'0 0.0
2014-Sep-22 09:12N 29°57' W 090°09'0 0.0
2014-Sep-22 08:31N 29°57' W 090°09'0 0.0
2014-Sep-22 07:31N 29°57' W 090°09'0 0.0
2014-Sep-22 06:33N 29°57' W 090°09'0 0.0
2014-Sep-22 05:27N 29°57' W 090°09'0 0.0
2014-Sep-22 04:17N 29°57' W 090°09'0 0.0
2014-Sep-21 10:32N 29°57' W 090°09'0 0.0
2014-Sep-21 09:19N 29°57' W 090°09'0 0.0
2014-Sep-21 08:19N 29°57' W 090°09'  
2014-Sep-18 08:29N 29°57' W 090°09'0 0.0
2014-Sep-17 12:33N 29°57' W 090°09'  

Dump ship's entire track history